Time;durP1;ratioP1;P1;durP2;ratioP2;P2;SDS_P1;SDS_P2;PMS_P1;PMS_P2;Temp;Humidity;BMP_temperature;BMP_pressure;BME280_temperature;BME280_humidity;BME280_pressure;Samples;Min_cycle;Max_cycle;Signal;HPM_P1;HPM_P2
2022/07/06 00:01:47;;;;;;;14.82;12.05;;;;;;;29.58;51.44;101113.38;4989726;28;20062;-82
2022/07/06 00:04:14;;;;;;;14.65;10.45;;;;;;;29.27;51.51;101084.72;4972378;28;20274;-80
2022/07/06 00:06:41;;;;;;;14.02;11.70;;;;;;;29.24;52.09;101098.88;4972304;28;20051;-81
2022/07/06 00:09:08;;;;;;;18.27;12.05;;;;;;;29.21;52.01;101102.13;4972631;28;20053;-81
2022/07/06 00:11:35;;;;;;;15.48;12.10;;;;;;;29.29;51.92;101134.50;4972656;28;20569;-81
2022/07/06 00:14:02;;;;;;;18.65;13.48;;;;;;;29.18;52.17;101137.09;4972952;28;20049;-81
2022/07/06 00:16:30;;;;;;;16.33;11.73;;;;;;;29.31;51.97;101146.03;4972649;28;20042;-80
2022/07/06 00:18:56;;;;;;;17.50;11.52;;;;;;;28.60;52.85;101049.97;4973043;28;20490;-80
2022/07/06 00:21:23;;;;;;;12.93;11.52;;;;;;;28.68;53.53;101088.63;4989978;28;20701;-81
2022/07/06 00:23:51;;;;;;;20.75;12.43;;;;;;;28.86;53.03;101114.06;4990060;28;20383;-80
2022/07/06 00:26:20;;;;;;;17.00;12.07;;;;;;;28.99;53.52;101143.81;4972712;28;20106;-79
2022/07/06 00:28:49;;;;;;;21.63;11.70;;;;;;;28.67;53.71;101108.81;4972445;28;20050;-80
2022/07/06 00:31:17;;;;;;;17.60;12.25;;;;;;;28.01;53.78;101001.03;4972874;28;20046;-80
2022/07/06 00:33:44;;;;;;;13.88;12.05;;;;;;;28.92;54.06;101160.38;4973315;28;20165;-80
2022/07/06 00:36:11;;;;;;;17.23;12.80;;;;;;;28.60;54.13;101119.06;4972767;28;20062;-80
2022/07/06 00:38:37;;;;;;;16.92;13.15;;;;;;;28.48;55.00;101134.66;4972151;28;20054;-81
2022/07/06 00:41:04;;;;;;;18.27;12.18;;;;;;;27.67;54.73;101026.25;4972992;28;20050;-81
2022/07/06 00:43:55;;;;;;;21.50;12.02;;;;;;;28.18;55.38;101127.50;4990609;28;20356;-81
2022/07/06 00:46:31;;;;;;;15.48;12.20;;;;;;;28.40;54.85;101173.22;4990317;28;20050;-81
2022/07/06 00:48:59;;;;;;;29.55;13.95;;;;;;;28.09;56.13;101153.47;4972951;28;20046;-81
2022/07/06 00:51:30;;;;;;;21.50;14.35;;;;;;;27.62;56.37;101093.47;4972293;28;20050;-83
2022/07/06 00:53:59;;;;;;;22.23;15.05;;;;;;;28.22;57.11;101205.06;4985048;28;20445;-81
2022/07/06 00:56:29;;;;;;;15.88;13.20;;;;;;;28.19;57.62;101202.00;4991259;28;20065;-81
2022/07/06 00:58:56;;;;;;;16.08;12.00;;;;;;;27.69;58.16;101127.72;5007855;28;20107;-80
2022/07/06 01:01:22;;;;;;;21.30;11.35;;;;;;;27.97;57.94;101169.03;4990565;28;20053;-80
2022/07/06 01:03:49;;;;;;;14.93;10.93;;;;;;;27.77;58.70;101148.38;4990825;28;20054;-80
2022/07/06 01:06:16;;;;;;;12.30;9.90;;;;;;;28.14;58.44;101191.81;4990784;28;20053;-81
2022/07/06 01:08:43;;;;;;;16.08;9.55;;;;;;;27.97;58.91;101190.88;4990963;28;20390;-80
2022/07/06 01:11:10;;;;;;;17.60;10.02;;;;;;;27.88;58.90;101163.09;4990810;28;20050;-82
2022/07/06 01:13:37;;;;;;;9.75;8.77;;;;;;;27.84;59.14;101160.03;4990917;28;20092;-80
2022/07/06 01:16:04;;;;;;;14.25;9.50;;;;;;;27.66;59.07;101119.19;4990896;28;20100;-80
2022/07/06 01:18:32;;;;;;;12.82;9.10;;;;;;;27.27;59.52;101083.38;4991109;28;20406;-80
2022/07/06 01:21:09;;;;;;;10.15;8.55;;;;;;;27.59;59.94;101145.75;5010284;28;20057;-80
2022/07/06 01:23:41;;;;;;;11.18;7.93;;;;;;;27.68;59.72;101150.63;5000807;28;20058;-81
2022/07/06 01:26:09;;;;;;;13.68;8.55;;;;;;;27.61;59.63;101135.44;5006467;28;20088;-82
2022/07/06 01:28:36;;;;;;;15.25;7.28;;;;;;;28.01;59.08;101200.22;5030500;28;20053;-83
2022/07/06 01:31:03;;;;;;;12.52;7.15;;;;;;;28.02;59.14;101193.72;5006803;28;20058;-79
2022/07/06 01:33:29;;;;;;;9.35;6.85;;;;;;;27.89;59.12;101162.88;4992766;28;20061;-79
2022/07/06 01:35:56;;;;;;;9.15;7.00;;;;;;;28.16;58.68;101188.81;4991442;28;20511;-80
2022/07/06 01:38:25;;;;;;;18.85;7.20;;;;;;;27.62;57.76;101098.91;4990914;28;20505;-81
2022/07/06 01:40:52;;;;;;;7.95;6.10;;;;;;;27.16;57.94;101055.03;4989528;28;20055;-81
2022/07/06 01:43:19;;;;;;;12.80;6.18;;;;;;;27.95;57.38;101193.00;4971186;28;20053;-81
2022/07/06 01:45:46;;;;;;;6.88;5.63;;;;;;;27.07;57.46;101079.06;4971273;28;20058;-81
2022/07/06 01:48:12;;;;;;;9.88;5.50;;;;;;;27.19;57.15;101086.47;4971257;28;20046;-82
2022/07/06 01:50:39;;;;;;;6.93;5.53;;;;;;;27.84;56.74;101181.84;4970964;28;20306;-81
2022/07/06 01:53:06;;;;;;;9.05;5.03;;;;;;;27.62;56.90;101161.63;4994733;28;20283;-81
2022/07/06 01:55:32;;;;;;;8.02;5.22;;;;;;;27.78;56.58;101182.75;5006356;28;20056;-81
2022/07/06 01:57:59;;;;;;;6.85;5.97;;;;;;;27.78;56.68;101193.66;5007506;28;20046;-80
2022/07/06 02:00:26;;;;;;;13.73;5.72;;;;;;;27.18;56.44;101073.84;4989712;28;20659;-82
2022/07/06 02:02:52;;;;;;;8.10;5.65;;;;;;;27.90;55.93;101202.72;5005849;28;20085;-79
2022/07/06 02:05:19;;;;;;;10.05;5.43;;;;;;;27.65;55.54;101156.56;5006040;28;20038;-79
2022/07/06 02:07:46;;;;;;;5.88;4.80;;;;;;;27.77;55.17;101199.34;4989933;28;20057;-81
2022/07/06 02:10:12;;;;;;;10.25;4.93;;;;;;;27.22;54.97;101113.25;5005787;28;20053;-80
2022/07/06 02:12:39;;;;;;;7.30;4.50;;;;;;;27.59;54.94;101183.94;4989901;28;20493;-81
2022/07/06 02:15:06;;;;;;;11.48;5.03;;;;;;;27.23;54.59;101129.34;5005908;28;20050;-80
2022/07/06 02:17:33;;;;;;;12.02;4.53;;;;;;;27.62;55.13;101203.41;4989588;28;20498;-81
2022/07/06 02:20:00;;;;;;;6.72;4.20;;;;;;;27.56;55.11;101201.59;5006132;28;20045;-80
2022/07/06 02:22:26;;;;;;;9.15;4.40;;;;;;;26.72;55.19;101083.59;4990319;28;20056;-80
2022/07/06 02:24:53;;;;;;;6.90;4.53;;;;;;;26.74;55.64;101106.81;5008128;28;20101;-81
2022/07/06 02:27:20;;;;;;;6.38;4.13;;;;;;;27.39;55.54;101196.00;4991226;28;20690;-81
2022/07/06 02:29:46;;;;;;;6.40;4.70;;;;;;;27.49;55.76;101211.78;4994618;28;20472;-81
2022/07/06 02:32:13;;;;;;;11.35;4.55;;;;;;;27.25;55.68;101184.47;4990514;28;20445;-81
2022/07/06 02:34:40;;;;;;;6.97;5.20;;;;;;;26.93;55.67;101142.16;5007128;28;20680;-79
2022/07/06 02:37:07;;;;;;;7.70;4.78;;;;;;;27.25;56.34;101221.78;4999938;28;20042;-80
2022/07/06 02:39:33;;;;;;;14.38;5.05;;;;;;;27.11;56.41;101209.38;4996784;28;20167;-83
2022/07/06 02:42:00;;;;;;;7.72;5.25;;;;;;;27.16;56.27;101212.25;4992380;28;20092;-82
2022/07/06 02:44:26;;;;;;;5.78;5.00;;;;;;;27.41;56.16;101242.13;4992559;28;20439;-81
2022/07/06 02:46:53;;;;;;;8.18;4.63;;;;;;;27.10;56.94;101229.53;4973663;28;20129;-81
2022/07/06 02:49:20;;;;;;;7.63;4.47;;;;;;;27.31;56.52;101258.19;4971299;28;20124;-80
2022/07/06 02:51:47;;;;;;;7.00;5.47;;;;;;;26.91;57.22;101221.38;4971105;28;20050;-82
2022/07/06 02:54:13;;;;;;;7.32;4.70;;;;;;;27.18;57.04;101256.44;4986434;28;20061;-82
2022/07/06 02:56:40;;;;;;;5.10;4.60;;;;;;;27.27;57.18;101269.56;4990607;28;20038;-79
2022/07/06 02:59:07;;;;;;;10.32;5.15;;;;;;;27.31;56.98;101275.41;4990117;28;20552;-80
2022/07/06 03:01:39;;;;;;;14.52;5.55;;;;;;;27.21;57.74;101288.72;5005680;28;20095;-80
2022/07/06 03:04:06;;;;;;;8.23;4.88;;;;;;;27.16;57.83;101278.50;5005790;28;20096;-81
2022/07/06 03:06:33;;;;;;;10.82;5.47;;;;;;;27.05;58.39;101258.28;4990132;28;20046;-81
2022/07/06 03:09:00;;;;;;;7.65;5.10;;;;;;;27.18;58.21;101283.72;4989734;28;20550;-83
2022/07/06 03:11:27;;;;;;;14.45;5.45;;;;;;;27.17;58.54;101301.97;5005538;28;20470;-79
2022/07/06 03:13:53;;;;;;;8.98;5.65;;;;;;;26.85;58.79;101252.28;4989308;28;20049;-81
2022/07/06 03:16:20;;;;;;;10.90;5.22;;;;;;;27.00;58.43;101252.72;4988997;28;20046;-80
2022/07/06 03:18:47;;;;;;;8.90;5.25;;;;;;;26.81;59.02;101270.97;4989376;28;20445;-80
2022/07/06 03:21:13;;;;;;;13.48;5.13;;;;;;;27.19;58.23;101297.16;5004963;28;20061;-81
2022/07/06 03:23:40;;;;;;;16.85;5.28;;;;;;;27.04;58.26;101285.75;4988878;28;20057;-80
2022/07/06 03:26:07;;;;;;;8.25;5.07;;;;;;;26.78;58.28;101270.59;5007021;28;20061;-79
2022/07/06 03:28:33;;;;;;;10.65;4.75;;;;;;;26.95;58.43;101298.88;4989968;28;20046;-81
2022/07/06 03:31:00;;;;;;;5.28;3.90;;;;;;;26.93;58.05;101290.09;5009026;28;20151;-81
2022/07/06 03:33:27;;;;;;;6.38;4.57;;;;;;;27.10;57.49;101311.28;5009510;28;20081;-80
2022/07/06 03:35:57;;;;;;;11.18;4.40;;;;;;;26.79;57.52;101281.25;4992705;28;20046;-82
2022/07/06 03:38:24;;;;;;;9.48;4.03;;;;;;;26.96;57.07;101311.44;4992440;28;20050;-80
2022/07/06 03:40:52;;;;;;;16.25;4.75;;;;;;;27.19;55.98;101329.03;4973852;28;20092;-81
2022/07/06 03:43:20;;;;;;;6.20;4.00;;;;;;;27.07;55.90;101331.66;4989903;28;20083;-80
2022/07/06 03:45:46;;;;;;;5.65;3.88;;;;;;;27.04;55.70;101321.19;4990523;28;20457;-82
2022/07/06 03:48:13;;;;;;;8.20;3.55;;;;;;;26.97;55.73;101318.56;4991361;28;20140;-81
2022/07/06 03:50:40;;;;;;;6.15;3.65;;;;;;;26.74;55.45;101285.72;4972936;28;20062;-80
2022/07/06 03:53:06;;;;;;;6.95;3.60;;;;;;;26.61;55.52;101295.72;4995157;28;20476;-80
2022/07/06 03:55:33;;;;;;;10.63;3.80;;;;;;;26.68;55.44;101309.25;4991833;28;20062;-80
2022/07/06 03:58:00;;;;;;;9.50;3.33;;;;;;;26.57;55.09;101294.50;4992122;28;20049;-80
2022/07/06 04:00:32;;;;;;;7.85;3.30;;;;;;;26.74;55.09;101318.41;4992583;28;20057;-81
2022/07/06 04:03:00;;;;;;;7.75;3.13;;;;;;;26.72;55.15;101305.00;4988512;28;20076;-80
2022/07/06 04:05:27;;;;;;;8.38;3.60;;;;;;;26.62;55.46;101305.53;4988446;28;20050;-81
2022/07/06 04:07:53;;;;;;;9.55;4.68;;;;;;;26.66;55.61;101310.56;4988541;28;20297;-81
2022/07/06 04:10:20;;;;;;;7.28;3.85;;;;;;;26.68;55.01;101292.06;4989723;28;20061;-83
2022/07/06 04:12:47;;;;;;;7.68;3.70;;;;;;;26.73;55.52;101314.03;4988540;28;20118;-81
2022/07/06 04:15:13;;;;;;;8.07;4.10;;;;;;;26.71;55.58;101313.41;4988308;28;20054;-81
2022/07/06 04:17:52;;;;;;;9.98;3.88;;;;;;;26.75;55.60;101320.06;4989198;28;20050;-81
2022/07/06 04:20:23;;;;;;;6.03;3.53;;;;;;;26.81;55.70;101324.63;4987952;28;20057;-81
2022/07/06 04:22:50;;;;;;;10.02;3.78;;;;;;;26.70;55.74;101304.44;4989173;28;20081;-82
2022/07/06 04:25:17;;;;;;;7.90;3.72;;;;;;;26.92;54.83;101309.38;4988684;28;20116;-80
2022/07/06 04:27:45;;;;;;;9.75;3.20;;;;;;;26.99;54.62;101304.69;4988222;28;20048;-80
2022/07/06 04:30:11;;;;;;;7.22;3.58;;;;;;;26.67;54.36;101257.75;4988235;28;20128;-81
2022/07/06 04:32:38;;;;;;;6.13;2.90;;;;;;;27.05;54.29;101309.25;4988089;28;20232;-80
2022/07/06 04:35:06;;;;;;;7.25;3.33;;;;;;;27.00;54.20;101301.75;4988540;28;20113;-81
2022/07/06 04:37:33;;;;;;;8.00;3.17;;;;;;;27.07;54.23;101313.41;4982589;28;20051;-81
2022/07/06 04:40:00;;;;;;;9.90;3.58;;;;;;;26.91;54.03;101289.50;4967240;28;20055;-81
2022/07/06 04:42:27;;;;;;;4.00;3.03;;;;;;;26.51;54.30;101232.75;4967513;28;20061;-81
2022/07/06 04:44:53;;;;;;;9.68;2.88;;;;;;;27.05;54.47;101323.69;4967769;28;20137;-81
2022/07/06 04:47:20;;;;;;;5.97;3.28;;;;;;;26.71;54.65;101256.22;4962263;28;20114;-81
2022/07/06 04:49:47;;;;;;;11.13;3.95;;;;;;;26.90;54.94;101290.56;4947841;29;20083;-81
2022/07/06 04:52:13;;;;;;;20.20;4.55;;;;;;;27.11;55.03;101312.94;4947989;29;20059;-81
2022/07/06 04:54:40;;;;;;;6.65;3.90;;;;;;;26.46;55.71;101219.00;4985770;28;20042;-80
2022/07/06 04:57:07;;;;;;;7.13;3.50;;;;;;;26.95;55.97;101298.88;4986366;28;20228;-80
2022/07/06 04:59:38;;;;;;;14.95;4.63;;;;;;;26.85;56.06;101282.25;4986668;28;20050;-80
2022/07/06 05:02:06;;;;;;;7.43;3.47;;;;;;;26.76;56.48;101273.53;4986239;28;20057;-80
2022/07/06 05:04:32;;;;;;;11.93;4.18;;;;;;;27.15;55.94;101320.44;4986462;28;20073;-81
2022/07/06 05:07:00;;;;;;;9.30;3.90;;;;;;;27.24;55.52;101319.09;4986580;28;20461;-80
2022/07/06 05:09:27;;;;;;;5.28;3.88;;;;;;;27.15;55.37;101320.44;4986784;28;20477;-80
2022/07/06 05:11:54;;;;;;;4.47;2.90;;;;;;;27.20;55.79;101345.13;4986948;28;20178;-81
2022/07/06 05:14:20;;;;;;;11.43;3.67;;;;;;;27.15;55.18;101347.69;4986827;28;20077;-80
2022/07/06 05:16:47;;;;;;;9.25;3.70;;;;;;;27.16;55.12;101348.50;4989902;28;20058;-79
2022/07/06 05:19:14;;;;;;;7.75;3.45;;;;;;;27.14;54.84;101347.91;4990060;28;20054;-81
2022/07/06 05:21:41;;;;;;;7.82;3.45;;;;;;;26.95;54.70;101320.69;4988200;28;20080;-81
2022/07/06 05:24:07;;;;;;;18.42;3.75;;;;;;;27.11;54.81;101351.91;4987828;28;20077;-80
2022/07/06 05:26:34;;;;;;;5.88;3.28;;;;;;;26.96;55.34;101319.59;4988359;28;20490;-80
2022/07/06 05:29:01;;;;;;;8.18;3.25;;;;;;;27.14;54.97;101350.63;4987008;28;20050;-79
2022/07/06 05:31:28;;;;;;;6.35;2.70;;;;;;;27.32;54.66;101358.00;4985864;28;20383;-80
2022/07/06 05:33:54;;;;;;;8.55;3.20;;;;;;;27.10;54.36;101323.00;4986133;28;20120;-81
2022/07/06 05:36:21;;;;;;;4.55;2.80;;;;;;;27.24;54.34;101356.44;4986173;28;20058;-81
2022/07/06 05:38:48;;;;;;;11.07;2.83;;;;;;;26.57;54.28;101237.31;4984000;28;20486;-82
2022/07/06 05:41:15;;;;;;;9.27;2.67;;;;;;;27.15;54.32;101319.59;4967813;28;20126;-81
2022/07/06 05:43:42;;;;;;;7.30;3.22;;;;;;;27.14;53.90;101324.22;4966507;28;20117;-81
2022/07/06 05:46:08;;;;;;;8.85;3.70;;;;;;;26.95;53.85;101281.72;4968689;28;20585;-80
2022/07/06 05:51:20;;;;;;;8.00;2.85;;;;;;;27.52;53.61;101350.38;4965352;28;20132;-82
2022/07/06 05:53:47;;;;;;;5.72;3.25;;;;;;;27.25;53.53;101309.84;4976920;28;20050;-83
2022/07/06 05:56:14;;;;;;;9.38;3.00;;;;;;;27.34;52.84;101307.63;4986249;28;20046;-80
2022/07/06 05:58:41;;;;;;;9.85;2.72;;;;;;;27.40;52.57;101338.59;4984038;28;20050;-80
2022/07/06 06:01:08;;;;;;;7.30;3.15;;;;;;;27.63;52.75;101370.59;4985445;28;20093;-80
2022/07/06 06:03:36;;;;;;;6.65;3.00;;;;;;;27.72;52.26;101369.19;4985178;28;20054;-80
2022/07/06 06:06:03;;;;;;;12.30;3.30;;;;;;;27.77;52.39;101379.38;4986949;28;20061;-79
2022/07/06 06:08:30;;;;;;;5.80;2.75;;;;;;;28.02;51.96;101379.28;4984886;28;20121;-82
2022/07/06 06:10:57;;;;;;;10.52;3.03;;;;;;;27.98;51.18;101386.25;4984626;28;20054;-80
2022/07/06 06:13:24;;;;;;;8.18;2.70;;;;;;;27.42;51.79;101320.94;4984022;28;20456;-81
2022/07/06 06:15:51;;;;;;;5.93;2.53;;;;;;;27.87;51.44;101377.81;4983886;28;20498;-81
2022/07/06 06:18:18;;;;;;;4.88;2.25;;;;;;;27.29;51.61;101288.41;4984397;28;20047;-81
2022/07/06 06:20:46;;;;;;;174.73;18.00;;;;;;;28.26;50.66;101389.16;4984582;28;20183;-81
2022/07/06 06:23:13;;;;;;;8.20;2.80;;;;;;;27.43;51.11;101295.34;4983982;28;20165;-79
2022/07/06 06:25:40;;;;;;;5.97;2.45;;;;;;;27.63;51.21;101326.94;4985223;28;20384;-81
2022/07/06 06:28:08;;;;;;;11.85;3.47;;;;;;;27.93;51.12;101397.88;4985326;28;20576;-82
2022/07/06 06:30:36;;;;;;;9.75;3.15;;;;;;;27.88;51.35;101390.38;4984140;28;20049;-81
2022/07/06 06:33:13;;;;;;;19.70;2.20;;;;;;;28.02;51.40;101395.66;4984495;28;20414;-80
2022/07/06 06:35:44;;;;;;;5.20;2.20;;;;;;;28.01;50.39;101381.19;4984145;28;20112;-80
2022/07/06 06:38:12;;;;;;;7.45;2.50;;;;;;;28.04;50.87;101393.53;4985816;28;20401;-79
2022/07/06 06:40:39;;;;;;;4.05;1.95;;;;;;;28.24;50.69;101413.13;4970035;28;20518;-79
2022/07/06 06:43:06;;;;;;;4.65;2.20;;;;;;;27.90;50.31;101336.41;4966344;28;20047;-81
2022/07/06 06:45:32;;;;;;;5.95;2.75;;;;;;;28.12;50.46;101401.38;4966853;28;20117;-80
2022/07/06 06:48:00;;;;;;;11.80;2.50;;;;;;;28.20;50.69;101411.13;4966754;28;20062;-80
2022/07/06 06:50:30;;;;;;;11.43;2.63;;;;;;;28.21;50.53;101410.06;4967719;28;20452;-81
2022/07/06 06:52:56;;;;;;;4.50;2.33;;;;;;;28.39;49.90;101406.41;4971635;28;20039;-82
2022/07/06 06:55:23;;;;;;;7.57;2.28;;;;;;;28.48;49.66;101410.47;4986474;28;20046;-81
2022/07/06 06:57:50;;;;;;;9.52;2.60;;;;;;;28.33;49.63;101381.72;4986624;28;20050;-82
2022/07/06 07:00:17;;;;;;;6.20;2.58;;;;;;;28.57;49.41;101409.06;4988831;28;20069;-81
2022/07/06 07:02:45;;;;;;;6.10;2.83;;;;;;;28.49;49.17;101393.03;5008766;28;20366;-80
2022/07/06 07:05:11;;;;;;;9.02;3.10;;;;;;;28.59;49.13;101417.84;5000557;28;20089;-80
2022/07/06 07:07:38;;;;;;;16.05;3.00;;;;;;;28.71;49.08;101420.56;5014983;28;20387;-81
2022/07/06 07:10:06;;;;;;;8.73;3.05;;;;;;;28.58;49.00;101410.72;4996989;28;20053;-82
2022/07/06 07:12:33;;;;;;;9.20;3.03;;;;;;;28.76;48.87;101416.09;4979117;28;20138;-78
2022/07/06 07:15:00;;;;;;;8.55;3.13;;;;;;;28.72;48.42;101420.34;4972916;28;20053;-81
2022/07/06 07:17:30;;;;;;;12.02;2.70;;;;;;;28.54;48.55;101395.88;4973040;28;20454;-81
2022/07/06 07:19:57;;;;;;;8.40;3.15;;;;;;;28.70;49.07;101411.56;4972946;28;20085;-80
2022/07/06 07:22:24;;;;;;;8.45;2.70;;;;;;;28.92;48.11;101402.75;4973503;28;20050;-81
2022/07/06 07:24:51;;;;;;;6.40;2.42;;;;;;;28.59;48.43;101357.75;4973989;28;20050;-79
2022/07/06 07:27:18;;;;;;;9.43;2.78;;;;;;;28.85;48.35;101400.13;4992644;28;20572;-80
2022/07/06 07:29:45;;;;;;;7.97;2.75;;;;;;;28.75;48.28;101367.13;4995196;28;20050;-81
2022/07/06 07:32:11;;;;;;;8.95;2.20;;;;;;;28.68;48.47;101339.94;4993530;28;20046;-82
2022/07/06 07:34:38;;;;;;;6.45;2.97;;;;;;;28.83;48.41;101346.81;4975406;28;20046;-79
2022/07/06 07:37:05;;;;;;;5.57;2.92;;;;;;;29.16;48.41;101395.38;4992183;28;20053;-80
2022/07/06 07:39:32;;;;;;;7.88;3.05;;;;;;;28.80;47.82;101333.63;4975163;28;20054;-78
2022/07/06 07:41:59;;;;;;;8.68;3.28;;;;;;;29.31;48.07;101398.44;4991791;28;20109;-77
2022/07/06 07:44:27;;;;;;;9.52;3.28;;;;;;;28.75;47.86;101302.38;4991657;28;20407;-81
2022/07/06 07:46:53;;;;;;;10.27;3.47;;;;;;;29.40;47.56;101377.00;4972664;28;20042;-80
2022/07/06 07:49:21;;;;;;;8.93;2.80;;;;;;;29.56;47.61;101389.06;4990497;28;20054;-82
2022/07/06 07:51:49;;;;;;;7.05;2.80;;;;;;;28.42;47.77;101206.59;4991271;28;20417;-82
2022/07/06 07:54:16;;;;;;;12.55;2.85;;;;;;;29.31;48.07;101356.59;4991037;28;20406;-81
2022/07/06 07:56:43;;;;;;;12.68;2.90;;;;;;;29.29;48.12;101350.53;4998839;28;20338;-82
2022/07/06 07:59:09;;;;;;;12.10;3.28;;;;;;;28.84;47.87;101277.44;5004233;28;20050;-81
2022/07/06 08:01:36;;;;;;;8.13;2.85;;;;;;;29.65;47.90;101386.78;5010042;28;20060;-83
2022/07/06 08:04:03;;;;;;;17.38;3.40;;;;;;;29.40;47.85;101325.88;5015080;28;20105;-83
2022/07/06 08:06:30;;;;;;;12.88;3.33;;;;;;;29.82;47.20;101384.94;5011726;28;20076;-83
2022/07/06 08:08:59;;;;;;;9.45;3.20;;;;;;;29.88;47.46;101381.22;5011179;28;20437;-81
2022/07/06 08:11:27;;;;;;;8.85;3.00;;;;;;;29.50;47.40;101316.19;5020443;28;20056;-81
2022/07/06 08:13:54;;;;;;;11.88;3.20;;;;;;;29.87;47.23;101363.13;5016055;28;20468;-82
2022/07/06 08:16:22;;;;;;;10.15;3.70;;;;;;;30.23;46.85;101382.91;4993101;28;20069;-83
2022/07/06 08:18:49;;;;;;;7.50;3.10;;;;;;;30.03;46.60;101343.16;4992266;28;20571;-81
2022/07/06 08:21:16;;;;;;;5.43;2.67;;;;;;;29.80;46.90;101319.50;5008484;28;20057;-82
2022/07/06 08:23:53;;;;;;;10.45;3.00;;;;;;;29.42;47.37;101261.88;4993072;28;20122;-81
2022/07/06 08:26:22;;;;;;;14.05;2.80;;;;;;;29.32;47.51;101265.25;4992098;28;20309;-81
2022/07/06 08:28:52;;;;;;;9.45;3.58;;;;;;;29.08;47.31;101188.84;4992607;28;20046;-81
2022/07/06 08:31:21;;;;;;;12.30;2.80;;;;;;;30.15;46.77;101378.69;5009210;28;20112;-81
2022/07/06 08:34:07;;;;;;;8.80;3.15;;;;;;;29.99;47.37;101354.84;4994251;28;20045;-83
2022/07/06 08:36:34;;;;;;;5.30;2.63;;;;;;;30.13;47.53;101367.13;5009009;28;20054;-83
2022/07/06 08:39:01;;;;;;;12.38;3.63;;;;;;;29.55;47.77;101306.16;4991738;28;20068;-83
2022/07/06 08:41:29;;;;;;;10.38;2.95;;;;;;;29.70;47.71;101313.03;4991732;28;20054;-82
2022/07/06 08:44:01;;;;;;;13.10;3.30;;;;;;;30.03;47.68;101365.06;5009262;28;20046;-82
2022/07/06 08:46:29;;;;;;;9.68;2.95;;;;;;;29.92;47.44;101329.53;4992249;28;20052;-80
2022/07/06 08:48:58;;;;;;;8.10;3.53;;;;;;;30.37;46.67;101359.63;4992576;28;20285;-78
2022/07/06 08:51:25;;;;;;;5.90;3.55;;;;;;;30.22;46.80;101348.38;5010071;28;20050;-79
2022/07/06 08:53:57;;;;;;;11.93;3.50;;;;;;;30.40;47.64;101402.94;4993197;28;20502;-79
2022/07/06 08:56:25;;;;;;;12.40;3.05;;;;;;;30.45;47.78;101400.28;5010205;28;20118;-79
2022/07/06 08:58:53;;;;;;;12.35;3.08;;;;;;;30.52;47.02;101388.31;4992484;28;20052;-80
2022/07/06 09:01:21;;;;;;;12.15;4.00;;;;;;;30.63;47.19;101388.22;4992305;28;20085;-81
2022/07/06 09:03:50;;;;;;;9.95;3.83;;;;;;;30.66;46.74;101392.38;4991590;28;20062;-78
2022/07/06 09:06:22;;;;;;;8.07;3.38;;;;;;;30.68;46.73;101387.44;4991999;28;20049;-79
2022/07/06 09:08:53;;;;;;;5.90;3.30;;;;;;;30.48;47.07;101381.69;4992002;28;20169;-79
2022/07/06 09:11:21;;;;;;;17.20;4.03;;;;;;;30.70;47.36;101395.44;4991833;28;20551;-80
2022/07/06 09:13:51;;;;;;;9.18;3.88;;;;;;;30.51;47.63;101401.16;4991786;28;20092;-80
2022/07/06 09:16:28;;;;;;;3.63;3.05;;;;;;;30.71;47.45;101408.03;4992085;28;20536;-78
2022/07/06 09:19:07;;;;;;;5.43;3.58;;;;;;;30.49;47.76;101386.91;4993393;28;20139;-80
2022/07/06 09:21:37;;;;;;;7.60;4.00;;;;;;;29.27;47.62;101226.88;4991743;28;20058;-79
2022/07/06 09:24:27;;;;;;;6.15;3.75;;;;;;;30.32;48.04;101384.19;5001175;28;20411;-81
2022/07/06 09:26:58;;;;;;;7.55;4.10;;;;;;;30.56;48.03;101392.19;4970401;28;20070;-81
2022/07/06 09:29:29;;;;;;;4.32;3.90;;;;;;;30.66;47.88;101387.72;4990399;28;20046;-79
2022/07/06 09:32:01;;;;;;;9.65;3.92;;;;;;;30.66;47.57;101378.69;4989546;28;20121;-79
2022/07/06 09:34:42;;;;;;;15.57;4.03;;;;;;;30.81;47.35;101383.53;4972296;28;20046;-79
2022/07/06 09:37:09;;;;;;;8.35;3.88;;;;;;;30.92;46.93;101379.88;4989842;28;20397;-78
2022/07/06 09:39:36;;;;;;;12.27;4.00;;;;;;;30.97;46.88;101381.84;4972674;28;20129;-81
2022/07/06 09:42:07;;;;;;;11.35;4.15;;;;;;;30.72;46.93;101342.03;4972363;28;20322;-81
2022/07/06 09:44:37;;;;;;;7.05;4.03;;;;;;;30.87;46.49;101361.44;4973031;28;20050;-82
2022/07/06 09:47:11;;;;;;;11.70;4.35;;;;;;;30.71;47.10;101354.09;4973236;28;20046;-81
2022/07/06 09:49:39;;;;;;;7.82;4.20;;;;;;;30.90;46.76;101375.72;4989025;28;20536;-82
2022/07/06 09:52:10;;;;;;;10.68;4.28;;;;;;;31.09;46.38;101374.34;4988462;28;20054;-82
2022/07/06 09:54:40;;;;;;;;;;;;;;;31.33;45.39;101385.88;5010114;28;20046;-80
2022/07/06 09:57:07;;;;;;;6.75;3.92;;;;;;;31.04;45.38;101316.69;5008839;28;19940;-82
2022/07/06 09:59:36;;;;;;;6.10;4.15;;;;;;;31.13;45.32;101323.38;4991177;28;20050;-82
2022/07/06 10:02:07;;;;;;;9.63;4.18;;;;;;;30.51;45.35;101225.00;5006000;28;20462;-82
2022/07/06 10:04:34;;;;;;;8.18;4.45;;;;;;;31.41;45.14;101351.69;4987748;28;20050;-81
2022/07/06 10:07:07;;;;;;;12.43;4.22;;;;;;;31.23;44.69;101293.34;4988960;28;20521;-82
2022/07/06 10:09:33;;;;;;;6.35;3.58;;;;;;;30.98;45.09;101230.81;5004773;28;20050;-82
2022/07/06 10:12:02;;;;;;;6.63;3.67;;;;;;;31.48;44.83;101291.97;5004567;28;20357;-82
2022/07/06 10:14:30;;;;;;;7.68;4.38;;;;;;;32.12;44.13;101363.41;4988071;28;20493;-81
2022/07/06 10:16:59;;;;;;;9.68;4.15;;;;;;;32.18;44.09;101346.94;5005904;28;20053;-83
2022/07/06 10:19:28;;;;;;;9.65;3.75;;;;;;;32.71;43.26;101353.38;4988620;28;20057;-83
2022/07/06 10:22:00;;;;;;;11.63;3.95;;;;;;;32.53;43.41;101338.16;4989175;28;20053;-81
2022/07/06 10:24:28;;;;;;;9.07;4.30;;;;;;;32.32;43.05;101268.50;4989557;28;20045;-83
2022/07/06 10:26:58;;;;;;;8.10;4.38;;;;;;;31.97;42.53;101181.22;4989649;28;20054;-81
2022/07/06 10:29:25;;;;;;;11.35;4.32;;;;;;;33.22;41.63;101367.38;4989662;28;20491;-83
2022/07/06 10:31:54;;;;;;;8.38;3.72;;;;;;;32.75;41.91;101307.78;4989467;28;20042;-83
2022/07/06 10:34:21;;;;;;;5.25;4.07;;;;;;;32.21;41.34;101206.34;4988725;28;20129;-84
2022/07/06 10:36:51;;;;;;;5.40;3.50;;;;;;;32.95;41.36;101343.59;4989362;28;20048;-83
2022/07/06 10:42:39;;;;;;;6.05;3.17;;;;;;;33.12;40.80;101345.34;4986196;28;20462;-82
2022/07/06 10:45:06;;;;;;;6.30;3.40;;;;;;;33.15;41.04;101334.63;4967315;28;20145;-83
2022/07/06 10:47:36;;;;;;;4.03;3.50;;;;;;;32.99;40.65;101286.16;4950960;28;20080;-84
2022/07/06 10:50:04;;;;;;;5.25;3.17;;;;;;;33.07;40.00;101276.56;4946191;28;20046;-83
2022/07/06 10:52:48;;;;;;;4.65;3.25;;;;;;;33.51;39.38;101314.63;4972512;28;20605;-82
2022/07/06 10:55:37;;;;;;;8.75;3.25;;;;;;;33.87;38.24;101300.91;5006293;28;20076;-83
2022/07/06 10:58:07;;;;;;;10.40;3.70;;;;;;;34.05;38.36;101325.94;5006338;28;20046;-82
2022/07/06 11:00:52;;;;;;;5.15;3.13;;;;;;;34.05;38.08;101341.66;4987456;28;20335;-83
2022/07/06 11:03:42;;;;;;;10.15;3.67;;;;;;;33.99;36.61;101337.25;4970019;28;20047;-82
2022/07/06 11:06:15;;;;;;;3.78;2.92;;;;;;;33.84;37.32;101319.63;4970361;28;20047;-83
2022/07/06 11:09:01;;;;;;;7.95;3.28;;;;;;;34.05;36.38;101316.84;4970374;28;20079;-82
2022/07/06 11:11:31;;;;;;;8.73;3.33;;;;;;;34.22;36.63;101324.88;4970252;28;20128;-81
2022/07/06 11:14:04;;;;;;;4.23;3.37;;;;;;;33.91;35.92;101246.91;4970651;28;20159;-80
2022/07/06 11:16:36;;;;;;;4.53;3.40;;;;;;;34.60;36.08;101315.16;4970309;28;20054;-81
2022/07/06 11:19:04;;;;;;;4.35;3.10;;;;;;;34.84;35.34;101304.31;4970821;28;20050;-82
2022/07/06 11:21:38;;;;;;;4.05;3.55;;;;;;;35.02;34.92;101311.13;4987581;28;20534;-81
2022/07/06 11:24:07;;;;;;;4.65;3.15;;;;;;;34.85;34.79;101261.00;4969771;28;20446;-81
2022/07/06 11:26:36;;;;;;;4.85;2.92;;;;;;;35.00;35.05;101305.06;4987954;28;20051;-83
2022/07/06 11:29:08;;;;;;;3.40;3.20;;;;;;;34.95;35.11;101305.06;4970968;28;20054;-81
2022/07/06 11:31:37;;;;;;;7.25;3.80;;;;;;;34.45;35.33;101213.19;4970951;28;20363;-83
2022/07/06 11:34:05;;;;;;;5.05;3.80;;;;;;;35.17;34.91;101304.72;4970671;28;20166;-82